Flight Track Log - Related Links

Times and Time Zones

All times are in EDT time to prevent confusion due to time zone crossing. See the N606FT flight status page for this flight to view local times or setup timezone preferences in your user account.

Time Position Orientation Groundspeed Altitude Reporting Facility
EDT Latitude Longitude Course Direction KTS MPH feet Rate Location/Type
Fri 07:46:27 AM 28.0667 -80.7667 180° South 103 119 3,600  Level Orlando TRACON
Fri 07:47:15 AM 28.0500 -80.7667 180° South 107 123 3,600  Level Orlando TRACON
Fri 07:48:27 AM 28.0000 -80.7667 180° South 105 121 3,600 45 Level Orlando TRACON
Fri 07:49:27 AM 27.9833 -80.7667 180° South 99 114 3,700 -31 Climbing Orlando TRACON
Fri 07:51:42 AM 27.9133 -80.7714 183° South 99 114 3,500 -62 Descending Miami Center
Fri 07:52:42 AM 27.8864 -80.7681 174° South 104 120 3,500  Level Miami Center
Fri 07:53:42 AM 27.8611 -80.7719 188° South 104 120 3,500  Level Miami Center
Fri 07:54:42 AM 27.8319 -80.7758 187° South 104 120 3,500 50 Level Miami Center
Fri 07:55:42 AM 27.8028 -80.7747 178° South 104 120 3,600 50 Climbing Miami Center
Fri 07:56:42 AM 27.7733 -80.7761 182° South 104 120 3,600 -45 Level Miami Center
Fri 07:57:54 AM 27.7400 -80.7772 182° South 104 120 3,500 -45 Descending Miami Center
Fri 07:58:54 AM 27.7108 -80.7717 170° South 104 120 3,500  Level Miami Center
Fri 07:59:54 AM 27.6839 -80.7658 169° South 104 120 3,500 50 Level Miami Center
Fri 08:00:54 AM 27.6547 -80.7625 174° South 104 120 3,600  Climbing Miami Center
Fri 08:01:54 AM 27.6297 -80.7642 183° South 104 120 3,500 -50 Descending Miami Center
Fri 08:02:54 AM 27.6006 -80.7631 178° South 104 120 3,500  Level Miami Center
Fri 08:03:54 AM 27.5694 -80.7597 175° South 104 120 3,500  Level Miami Center
Fri 08:04:54 AM 27.5422 -80.7589 178° South 104 120 3,500  Level Miami Center
Fri 08:05:54 AM 27.5131 -80.7603 182° South 104 120 3,500  Level Miami Center
Fri 08:06:54 AM 27.4878 -80.7639 187° South 104 120 3,500 50 Level Miami Center
Fri 08:07:54 AM 27.4606 -80.7653 183° South 104 120 3,600 100 Climbing Miami Center
Fri 08:08:54 AM 27.4311 -80.7761 198° South 104 120 3,700 -2 Climbing Miami Center
Fri 08:51:30 AM 27.6881 -80.7731 359° North 106 122 3,500 -2 Descending Miami Center
Fri 08:52:30 AM 27.7172 -80.7742 358° North 106 122 3,600  Climbing Miami Center
Fri 08:53:30 AM 27.7464 -80.7728 North 101 116 3,500 -100 Descending Miami Center
Fri 08:54:30 AM 27.7736 -80.7714 North 101 116 3,400 31 Descending Miami Center
Fri 08:56:41 AM 27.8333 -80.7667 North 104 120 3,600 30 Climbing Orlando TRACON
Fri 08:57:48 AM 27.8667 -80.7667 360° North 108 124 3,500 -50 Descending Orlando TRACON
Fri 08:58:42 AM 27.9000 -80.7667 360° North 107 123 3,500 56 Level Orlando TRACON
Fri 08:59:36 AM 27.9167 -80.7667 360° North 103 119 3,600 105 Climbing Orlando TRACON
Fri 09:00:36 AM 27.9500 -80.7667 360° North 100 115 3,700 48 Climbing Orlando TRACON
Fri 09:01:42 AM 27.9833 -80.7667 360° North 103 119 3,700 -50 Level Orlando TRACON
Fri 09:02:37 AM 28.0167 -80.7667 360° North 104 120 3,600 -104 Descending Orlando TRACON
Fri 09:03:37 AM 28.0333 -80.7667 360° North 110 127 3,500  Descending Orlando TRACON
Fri 09:04:43 AM 28.0667 -80.7667 360° North 99 114 3,600 48 Climbing Orlando TRACON
Fri 09:05:43 AM 28.1000 -80.7667 360° North 105 121 3,600 50 Level Orlando TRACON
Fri 09:06:43 AM 28.1333 -80.7667 360° North 105 121 3,700 100 Climbing Orlando TRACON

Login

Don't have an account? Register now (free) for customized features, flight alerts, and more!